Danbury, Connecticut
Current Conditions -  °F | °C
As of 8:53 AM on Monday 22 Dec 2014 (Local Time) from KDXR Reporting Station
Overcast Overcast  
Wind Chill: 30°   Ceiling: 900
Heat Index: 34°   Visibility: 7mi
Dew Point: 30°   Wind: 5mph
Humidity: 85%   Direction: 60°ENE
Pressure: 30.33"   Gusts: NA
Location:  41.39°N, 73.45°W
Report Text: KDXR 221353Z 06004KT 7SM OVC009 01/M01 A3033 RMK AO2 CIG 006V012 SLP276 T00111011
Loading
Personal Weather Stations






























Interactive Weather Map New forecast layout! Learn more

10-Day Weather Forecast

Advertisements
Track Severe Weather on mobile